首页
METAR-TAF:

METAR-TAF

机场 :

蓬塔阿雷纳斯, 智利

纬度: 53-00S, 经度: 070-51W, 海拔: 37米

当前天气观测

该预报发布于1小时和8分钟前的14:00 UTC
风速16节,风向西转西南
温度 13°C
湿度 47%
气压 1007 hPa
能见度10公里或以上
散云层高于4100英尺

METAR: SCCI 201400Z 25016KT 9999 SCT041 13/02 Q1007 NOSIG

时间: 12:08 (15:08 UTC)

预报

该预报发布于4小时和24分钟前的10:44 UTC
预报有效从20日的 12点(UTC)到 21日的 12点(UTC)
风速20节,风向西,有时为30节阵风
能见度10公里或以上
少量云层高于4000英尺
成为
从 20日的 14点(UTC)到 20日的 16点(UTC)
风速23节,风向西转西北,有时为33节阵风
能見度: 9000
散云层高于3000英尺
小阵雨
成为
从 20日的 18点(UTC)到 20日的 20点(UTC)
风速30节,风向西转西北,有时为40节阵风
能见度10公里或以上
短暂存在
从 20日的 21点(UTC)到 21日的 03点(UTC)
风速35节,风向西转西北,有时为47节阵风
成为
从 21日的 09点(UTC)到 21日的 11点(UTC)
风速15节,风向西北,有时为27节阵风
能見度: 8000
少量云层高于3000英尺
多云层高于5000英尺
小雨

TAF: SCCI 201044Z 2012/2112 26020G30KT 9999 FEW040 TX17/2018Z TN10/2012Z BECMG 2014/2016 30023G33KT 9000 -SHRA SCT030 BECMG 2018/2020 29030G40KT 9999 NSW TEMPO 2021/2103 29035G47KT BECMG 2109/2111 32015G27KT 8000 -RA FEW030 BKN050

超过4000个机场的气象观测和天气预报(METAR&TAF报告)。

可查询的气象台以黄色和红色小点在地图上表示。

将鼠标移到小点上方,可查看气象台名称。

然后点击查看天气观测和预报。

如需切换地图:点击带黑十字的绿色按钮放大地图;点击带横线的绿色按钮缩小地图;或者点击绿色箭头查看邻近地区的地图。


METAR-TAF: